KCEU/CEU METAR and TAF weather

Enter ICAO airport designator
Station Type Date Time Source
KCEU METAR 2018/04/23 11:21 UTC NOAA

KCEU 231121Z AUTO 10012G21KT 2 1/2SM +RA BR BKN011 OVC015 12/11 A3011 RMK AO2 CIG 008V012 PRESRR P0013 T01220111


Station Type Date Time Source
KCEU Decoded METAR 2018/04/23 11:21 UTC NOAA

CLEMSON-OCONEE COUNTY AIRPORT , SC, United States (KCEU) 34-40N 082-53W 268M
Apr 23, 2018 - 07:21 AM EDT / 2018.04.23 1121 UTC
Wind: from the E (100 degrees) at 14 MPH (12 KT) gusting to 24 MPH (21 KT):0
Visibility: 2 1/2 mile(s):0
Sky conditions: overcast
Weather: heavy rain; mist
Precipitation last hour: 0.13 inches
Temperature: 54.0 F (12.2 C)
Dew Point: 52.0 F (11.1 C)
Relative Humidity: 92%
Pressure (altimeter): 30.11 in. Hg (1019 hPa)
Pressure tendency: rising rapidly
ob: KCEU 231121Z AUTO 10012G21KT 2 1/2SM +RA BR BKN011 OVC015 12/11 A3011 RMK AO2 CIG 008V012 PRESRR P0013 T01220111
cycle: 11

Station Type Date Time Source
KCEU TAF UTC NOAA

Error!


Example: see airport list